Time;durP1;ratioP1;P1;durP2;ratioP2;P2;SDS_P1;SDS_P2;PMS_P1;PMS_P2;Temp;Humidity;BMP_temperature;BMP_pressure;BME280_temperature;BME280_humidity;BME280_pressure;Samples;Min_cycle;Max_cycle;Signal;HPM_P1;HPM_P2
2022/01/12 00:01:35;;;;;;;10.55;6.40;;;2.40;99.90;;;;;;4983061;28;20197;-84
2022/01/12 00:04:01;;;;;;;6.77;6.27;;;2.50;99.90;;;;;;4960480;28;20212;-84
2022/01/12 00:06:28;;;;;;;6.93;6.30;;;2.50;99.90;;;;;;4989217;28;20407;-85
2022/01/12 00:08:54;;;;;;;7.78;5.95;;;2.60;99.90;;;;;;4968029;28;20193;-84
2022/01/12 00:11:21;;;;;;;8.70;6.10;;;2.70;99.90;;;;;;4979206;28;20267;-84
2022/01/12 00:13:51;;;;;;;9.80;6.57;;;2.30;99.90;;;;;;4991018;28;20196;-84
2022/01/12 00:16:17;;;;;;;8.07;6.47;;;2.40;99.90;;;;;;4993891;28;20319;-84
2022/01/12 00:18:45;;;;;;;9.20;7.07;;;2.40;99.90;;;;;;4970757;28;20260;-83
2022/01/12 00:21:11;;;;;;;7.15;6.05;;;;;;;;;;4985319;28;20185;-83
2022/01/12 00:23:38;;;;;;;8.65;6.00;;;2.20;99.90;;;;;;4980681;28;20272;-83
2022/01/12 00:26:11;;;;;;;10.45;7.28;;;2.10;99.90;;;;;;4982519;28;20196;-83
2022/01/12 00:34:07;;;;;;;10.35;8.07;;;2.20;99.90;;;;;;4979499;28;20234;-83
2022/01/12 00:36:33;;;;;;;9.20;6.10;;;2.20;99.90;;;;;;4999084;28;20708;-83
2022/01/12 00:39:00;;;;;;;7.43;6.63;;;2.70;99.90;;;;;;5000810;28;20228;-84
2022/01/12 00:41:26;;;;;;;5.80;5.30;;;2.30;99.90;;;;;;5003204;28;20787;-84
2022/01/12 00:43:58;;;;;;;6.40;5.90;;;2.50;99.90;;;;;;4978433;28;20536;-85
2022/01/12 00:46:28;;;;;;;6.45;5.80;;;2.50;99.90;;;;;;4993676;28;20421;-85
2022/01/12 00:48:57;;;;;;;6.22;5.65;;;2.80;99.90;;;;;;4957128;28;20194;-84
2022/01/12 00:51:27;;;;;;;5.18;4.78;;;2.60;99.90;;;;;;4997160;28;20575;-84
2022/01/12 00:53:54;;;;;;;5.50;5.10;;;2.70;99.90;;;;;;4966758;28;20686;-84
2022/01/12 00:56:21;;;;;;;6.25;5.75;;;2.90;99.90;;;;;;4986456;28;20185;-85
2022/01/12 00:58:46;;;;;;;6.05;5.60;;;2.80;99.90;;;;;;4974873;28;20364;-84
2022/01/12 01:01:12;;;;;;;7.83;6.53;;;4.90;99.90;;;;;;4978209;28;20684;-84
2022/01/12 01:03:38;;;;;;;7.30;6.43;;;3.30;99.90;;;;;;4997146;28;20197;-84
2022/01/12 01:06:06;;;;;;;5.70;5.20;;;2.80;99.90;;;;;;4965573;28;20280;-84
2022/01/12 01:08:32;;;;;;;6.28;5.40;;;2.80;99.90;;;;;;4987450;28;20200;-85
2022/01/12 01:10:57;;;;;;;8.00;6.07;;;2.60;99.90;;;;;;4999618;28;20177;-84
2022/01/12 01:13:34;;;;;;;8.03;6.10;;;2.90;99.90;;;;;;4978110;28;20674;-84
2022/01/12 01:26:44;;;;;;;5.70;4.88;;;3.00;99.90;;;;;;4990163;28;20286;-83
2022/01/12 01:29:10;;;;;;;5.67;5.20;;;3.20;99.90;;;;;;4966558;28;20218;-84
2022/01/12 01:31:36;;;;;;;5.30;4.80;;;3.10;99.90;;;;;;4991140;28;20188;-84
2022/01/12 01:34:10;;;;;;;6.45;5.30;;;3.30;99.90;;;;;;4983050;28;20204;-83
2022/01/12 01:36:45;;;;;;;6.20;5.60;;;3.30;99.90;;;;;;4978306;28;20216;-83
2022/01/12 01:39:13;;;;;;;6.05;4.95;;;3.50;99.90;;;;;;4976819;28;20231;-83
2022/01/12 01:41:42;;;;;;;5.30;4.80;;;3.50;99.90;;;;;;4985618;28;20550;-84
2022/01/12 01:54:54;;;;;;;8.65;5.18;;;3.20;99.90;;;;;;4984470;28;20208;-84
2022/01/12 01:57:20;;;;;;;5.53;5.00;;;3.20;99.90;;;;;;4997844;28;20212;-83
2022/01/12 01:59:46;;;;;;;8.50;5.60;;;3.90;99.90;;;;;;4997593;28;20211;-83
2022/01/12 02:02:12;;;;;;;6.05;5.45;;;3.60;99.90;;;;;;4982445;28;20280;-83
2022/01/12 02:04:38;;;;;;;5.57;5.18;;;3.70;99.90;;;;;;4964356;28;20275;-84
2022/01/12 02:07:04;;;;;;;5.63;5.07;;;3.60;99.90;;;;;;5006790;28;20192;-83
2022/01/12 02:09:30;;;;;;;5.50;5.30;;;3.40;99.90;;;;;;4997020;28;20301;-84
2022/01/12 02:11:56;;;;;;;6.00;5.40;;;3.50;99.90;;;;;;5003940;28;20678;-83
2022/01/12 02:14:22;;;;;;;6.80;5.80;;;3.50;99.90;;;;;;4977354;28;20206;-83
2022/01/12 02:16:56;;;;;;;5.77;5.20;;;3.40;99.90;;;;;;5002549;28;20186;-83
2022/01/12 02:19:48;;;;;;;5.90;5.30;;;3.60;99.90;;;;;;4958986;28;20441;-82
2022/01/12 02:36:18;;;;;;;5.32;4.90;;;3.40;99.90;;;;;;4941417;28;20194;-83
2022/01/12 02:41:29;;;;;;;5.80;5.20;;;3.40;99.90;;;;;;4990401;28;20196;-83
2022/01/12 02:54:50;;;;;;;6.57;6.17;;;3.20;99.90;;;;;;4987298;28;20217;-83
2022/01/12 02:57:16;;;;;;;5.45;5.05;;;3.30;99.90;;;;;;4981228;28;20189;-83
2022/01/12 03:02:40;;;;;;;6.35;5.75;;;3.00;99.90;;;;;;4999567;28;20443;-83
2022/01/12 03:07:53;;;;;;;6.78;6.07;;;3.00;99.90;;;;;;4992983;28;20377;-82
2022/01/12 03:10:18;;;;;;;6.68;6.00;;;3.00;99.90;;;;;;4968595;28;20193;-83
2022/01/12 03:12:45;;;;;;;6.17;5.77;;;3.10;99.90;;;;;;4988318;28;20562;-83
2022/01/12 03:15:11;;;;;;;8.27;6.00;;;3.30;99.90;;;;;;4985518;28;20197;-82
2022/01/12 03:17:37;;;;;;;6.63;6.03;;;3.00;99.90;;;;;;4981459;28;20675;-82
2022/01/12 03:20:07;;;;;;;7.37;5.80;;;3.10;99.90;;;;;;4985118;28;20445;-84
2022/01/12 03:22:33;;;;;;;6.43;5.93;;;3.20;99.90;;;;;;4990470;28;20576;-83
2022/01/12 03:24:59;;;;;;;7.60;6.70;;;3.10;99.90;;;;;;4992454;28;20194;-82
2022/01/12 03:27:26;;;;;;;6.87;6.27;;;3.10;99.90;;;;;;4983229;28;20220;-82
2022/01/12 03:29:55;;;;;;;6.28;5.75;;;3.60;99.90;;;;;;4973014;28;20188;-83
2022/01/12 03:32:30;;;;;;;8.07;7.18;;;3.40;99.90;;;;;;5001203;28;20193;-84
2022/01/12 03:35:06;;;;;;;6.55;6.00;;;3.50;99.90;;;;;;4969490;28;20205;-83
2022/01/12 03:37:53;;;;;;;7.00;6.55;;;4.50;99.90;;;;;;4975782;28;20578;-84
2022/01/12 03:40:19;;;;;;;7.20;6.50;;;3.00;99.90;;;;;;4984407;28;20662;-84
2022/01/12 03:42:45;;;;;;;6.73;6.00;;;3.20;99.90;;;;;;4980744;28;20186;-83
2022/01/12 03:45:11;;;;;;;6.33;5.77;;;3.40;99.90;;;;;;4970156;28;21057;-83
2022/01/12 03:47:36;;;;;;;9.70;6.27;;;3.00;99.90;;;;;;4980300;28;20227;-84
2022/01/12 03:50:03;;;;;;;6.57;5.93;;;3.30;99.90;;;;;;4975191;28;20279;-84
2022/01/12 03:52:28;;;;;;;6.15;5.60;;;3.50;99.90;;;;;;5000364;28;20199;-84
2022/01/12 03:54:54;;;;;;;5.80;5.37;;;3.60;99.90;;;;;;4965413;28;20632;-83
2022/01/12 03:57:20;;;;;;;6.07;5.67;;;5.90;99.90;;;;;;4972424;28;20235;-84
2022/01/12 03:59:45;;;;;;;7.07;6.10;;;3.80;99.90;;;;;;4986230;28;20204;-84
2022/01/12 04:02:11;;;;;;;6.27;5.67;;;3.70;99.90;;;;;;4981702;28;20184;-83
2022/01/12 04:04:53;;;;;;;7.03;6.53;;;3.60;99.90;;;;;;4980253;28;20514;-83
2022/01/12 04:10:02;;;;;;;7.20;6.53;;;3.80;99.90;;;;;;4985752;28;20224;-83
2022/01/12 04:12:29;;;;;;;7.13;6.43;;;3.70;99.90;;;;;;4987537;28;20189;-83
2022/01/12 04:14:54;;;;;;;10.00;6.53;;;3.50;99.90;;;;;;4976203;28;20189;-83
2022/01/12 04:17:20;;;;;;;8.37;7.57;;;3.50;99.90;;;;;;4983164;28;20215;-83
2022/01/12 04:19:46;;;;;;;11.60;7.23;;;3.30;99.90;;;;;;4973903;28;20216;-83
2022/01/12 04:27:43;;;;;;;7.15;6.45;;;;;;;;;;4989155;28;20705;-84
2022/01/12 04:30:09;;;;;;;8.45;6.82;;;3.50;99.90;;;;;;4990843;28;20762;-84
2022/01/12 04:32:40;;;;;;;7.88;7.10;;;;;;;;;;4996185;28;20244;-84
2022/01/12 04:35:06;;;;;;;6.53;5.93;;;3.40;99.90;;;;;;4990831;28;20251;-84
2022/01/12 04:37:35;;;;;;;7.18;6.45;;;;;;;;;;4993320;28;20221;-85
2022/01/12 04:40:06;;;;;;;9.60;7.30;;;3.50;99.90;;;;;;4990992;28;20197;-85
2022/01/12 04:42:34;;;;;;;6.57;6.03;;;3.50;99.90;;;;;;4969227;28;20564;-84
2022/01/12 04:45:04;;;;;;;6.50;5.95;;;3.50;99.90;;;;;;4958608;28;20280;-83
2022/01/12 04:47:57;;;;;;;6.88;6.28;;;;;;;;;;4977474;28;20469;-84
2022/01/12 04:50:16;;;;;;;7.28;6.57;;;3.60;99.90;;;;;;4997767;28;20248;-84
2022/01/12 04:52:42;;;;;;;7.30;6.80;;;3.70;99.90;;;;;;4986908;28;20651;-84
2022/01/12 04:55:08;;;;;;;9.00;6.80;;;3.50;99.90;;;;;;4967666;28;20185;-84
2022/01/12 04:57:34;;;;;;;8.02;6.72;;;3.60;99.90;;;;;;4967647;28;20956;-83
2022/01/12 05:00:06;;;;;;;7.03;6.30;;;3.60;99.90;;;;;;4984424;28;20193;-84
2022/01/12 05:13:27;;;;;;;7.50;6.80;;;3.50;99.90;;;;;;4979423;28;20536;-83
2022/01/12 05:15:53;;;;;;;9.53;7.20;;;3.60;99.90;;;;;;4997874;28;20181;-84
2022/01/12 05:18:19;;;;;;;9.13;6.57;;;3.70;99.90;;;;;;4971879;28;20963;-83
2022/01/12 05:20:46;;;;;;;7.90;7.10;;;3.60;99.90;;;;;;4979436;28;20276;-84
2022/01/12 05:23:12;;;;;;;8.90;7.97;;;3.30;99.90;;;;;;4994101;28;20181;-83
2022/01/12 05:25:38;;;;;;;7.43;6.75;;;3.50;99.90;;;;;;4984749;28;20180;-83
2022/01/12 05:28:04;;;;;;;7.13;6.37;;;3.80;99.90;;;;;;4976356;28;20239;-82
2022/01/12 05:30:30;;;;;;;9.70;6.63;;;;;;;;;;4970791;28;20184;-83
2022/01/12 05:32:55;;;;;;;7.13;6.43;;;3.60;99.90;;;;;;5001290;28;20192;-84
2022/01/12 05:35:21;;;;;;;7.63;6.90;;;4.50;99.90;;;;;;4994427;28;20306;-83
2022/01/12 05:37:47;;;;;;;9.37;7.37;;;;;;;;;;4998548;28;20248;-83
2022/01/12 05:40:16;;;;;;;7.70;6.70;;;3.90;99.90;;;;;;4971640;28;20650;-83
2022/01/12 05:42:43;;;;;;;7.40;6.90;;;;;;;;;;4992498;28;20294;-84
2022/01/12 05:45:10;;;;;;;9.05;7.13;;;3.70;99.90;;;;;;4971281;28;20189;-83
2022/01/12 05:50:03;;;;;;;7.07;6.63;;;3.90;99.90;;;;;;4997902;28;20224;-83
2022/01/12 05:52:29;;;;;;;7.80;7.00;;;3.70;99.90;;;;;;5003223;28;20213;-84
2022/01/12 05:54:54;;;;;;;7.53;6.93;;;3.60;99.90;;;;;;4997409;28;20929;-83
2022/01/12 05:57:20;;;;;;;8.00;7.20;;;3.60;99.90;;;;;;4990057;28;20275;-83
2022/01/12 05:59:46;;;;;;;11.53;8.50;;;3.90;99.90;;;;;;4967004;28;20528;-83
2022/01/12 06:02:11;;;;;;;8.13;7.03;;;3.90;99.90;;;;;;4977899;28;20678;-83
2022/01/12 06:04:37;;;;;;;7.87;7.17;;;4.00;99.90;;;;;;4979742;28;20203;-84
2022/01/12 06:07:02;;;;;;;7.77;6.73;;;3.90;99.90;;;;;;4961535;28;20782;-83
2022/01/12 06:09:30;;;;;;;8.37;7.57;;;4.20;99.90;;;;;;4974328;28;20200;-83
2022/01/12 06:11:56;;;;;;;9.48;7.22;;;3.60;99.90;;;;;;4986105;28;20180;-84
2022/01/12 06:14:22;;;;;;;9.13;7.80;;;3.60;99.90;;;;;;4973667;28;20195;-86
2022/01/12 06:16:57;;;;;;;8.37;7.57;;;3.50;99.90;;;;;;5002115;28;20651;-83
2022/01/12 06:19:22;;;;;;;9.18;8.35;;;3.50;99.90;;;;;;4974146;28;20529;-84
2022/01/12 06:21:48;;;;;;;11.43;8.40;;;;;;;;;;4978383;28;20191;-85
2022/01/12 06:24:14;;;;;;;8.43;7.50;;;3.40;99.90;;;;;;4973308;28;20195;-83
2022/01/12 06:26:41;;;;;;;7.03;6.53;;;3.40;99.90;;;;;;5001106;28;20872;-83
2022/01/12 06:31:36;;;;;;;8.73;7.78;;;3.50;99.90;;;;;;4989070;28;20590;-84
2022/01/12 06:34:02;;;;;;;7.75;6.97;;;;;;;;;;4984356;28;20201;-81
2022/01/12 06:36:28;;;;;;;7.07;6.38;;;3.90;99.90;;;;;;5000265;28;20191;-82
2022/01/12 06:38:54;;;;;;;8.70;7.73;;;;;;;;;;4961370;28;20229;-82
2022/01/12 06:41:20;;;;;;;8.50;7.60;;;3.90;99.90;;;;;;4970748;28;20399;-80
2022/01/12 06:43:46;;;;;;;9.02;8.07;;;3.90;99.90;;;;;;4970759;28;20458;-80
2022/01/12 06:46:19;;;;;;;11.63;9.20;;;;;;;;;;4633609;28;10000511;-81
2022/01/12 06:48:46;;;;;;;8.43;7.63;;;3.90;99.90;;;;;;4978883;28;20220;-82
2022/01/12 06:51:11;;;;;;;9.68;7.60;;;3.80;99.90;;;;;;4985116;28;20531;-83
2022/01/12 06:53:37;;;;;;;9.10;8.20;;;;;;;;;;4994993;28;20200;-83
2022/01/12 06:56:04;;;;;;;8.67;7.80;;;3.80;99.90;;;;;;4987076;28;20197;-84
2022/01/12 06:58:29;;;;;;;9.13;8.30;;;3.80;99.90;;;;;;4990586;28;20833;-82
2022/01/12 07:00:55;;;;;;;8.60;7.77;;;3.90;99.90;;;;;;4973846;28;20291;-82
2022/01/12 07:03:21;;;;;;;9.47;8.43;;;4.20;99.90;;;;;;4989380;28;20992;-83
2022/01/12 07:05:47;;;;;;;14.10;7.60;;;3.90;99.90;;;;;;4993830;28;20188;-83
2022/01/12 07:08:14;;;;;;;8.95;8.10;;;3.90;99.90;;;;;;4990214;28;20479;-81
2022/01/12 07:10:39;;;;;;;12.43;8.20;;;3.90;99.90;;;;;;4967890;28;20223;-84
2022/01/12 07:13:05;;;;;;;8.47;7.87;;;3.80;99.90;;;;;;4969042;28;20671;-83
2022/01/12 07:15:31;;;;;;;9.57;7.60;;;;;;;;;;4965589;28;20209;-83
2022/01/12 07:18:03;;;;;;;11.15;8.38;;;3.80;99.90;;;;;;4976291;28;20440;-84
2022/01/12 07:20:28;;;;;;;10.63;9.05;;;3.80;99.90;;;;;;4959591;28;20197;-83
2022/01/12 07:22:57;;;;;;;8.43;7.60;;;;;;;;;;4985128;28;20201;-84
2022/01/12 07:25:23;;;;;;;9.10;8.30;;;;;;;;;;4966009;28;20201;-84
2022/01/12 07:27:49;;;;;;;10.30;7.95;;;3.70;99.90;;;;;;4968211;28;20217;-83
2022/01/12 07:30:15;;;;;;;8.80;7.90;;;;;;;;;;4966385;28;20251;-83
2022/01/12 07:32:40;;;;;;;11.50;8.10;;;3.80;99.90;;;;;;4984822;28;20388;-84
2022/01/12 07:35:07;;;;;;;10.03;7.40;;;3.90;99.90;;;;;;4982915;28;20451;-84
2022/01/12 07:37:35;;;;;;;7.97;7.18;;;4.00;99.90;;;;;;4986354;28;20556;-83
2022/01/12 07:40:02;;;;;;;8.70;7.90;;;;;;;;;;4984346;28;20215;-83
2022/01/12 07:42:27;;;;;;;10.20;9.20;;;4.40;99.90;;;;;;4980767;28;20184;-83
2022/01/12 07:44:59;;;;;;;8.93;8.23;;;4.00;99.90;;;;;;4982366;28;20201;-83
2022/01/12 07:47:29;;;;;;;8.75;8.02;;;4.00;99.90;;;;;;4981194;28;20282;-84
2022/01/12 07:49:55;;;;;;;8.50;7.82;;;4.20;99.90;;;;;;4974968;28;20205;-83
2022/01/12 07:52:22;;;;;;;10.07;9.00;;;4.00;99.90;;;;;;4973545;28;20197;-83
2022/01/12 07:54:48;;;;;;;13.23;9.95;;;4.00;99.90;;;;;;4963336;28;20405;-82
2022/01/12 07:57:14;;;;;;;9.83;8.93;;;4.00;99.90;;;;;;4971697;28;20279;-84
2022/01/12 07:59:44;;;;;;;10.18;9.10;;;4.00;99.90;;;;;;4967348;28;20463;-83
2022/01/12 08:02:11;;;;;;;9.50;8.65;;;4.30;99.90;;;;;;4981782;28;20697;-82
2022/01/12 08:04:38;;;;;;;11.10;9.52;;;4.20;99.90;;;;;;4985956;28;20197;-84
2022/01/12 08:07:04;;;;;;;11.45;10.18;;;4.20;99.90;;;;;;4985086;28;20189;-84
2022/01/12 08:09:30;;;;;;;9.35;8.45;;;4.20;99.90;;;;;;4968758;28;20200;-84
2022/01/12 08:11:56;;;;;;;8.82;8.02;;;4.40;99.90;;;;;;4987895;28;20235;-84
2022/01/12 08:14:25;;;;;;;10.33;9.20;;;4.30;99.90;;;;;;4982917;28;20584;-82
2022/01/12 08:16:50;;;;;;;9.20;8.40;;;4.20;99.90;;;;;;4986910;28;20429;-85
2022/01/12 08:19:20;;;;;;;9.00;8.10;;;4.20;99.90;;;;;;4976894;28;20580;-83
2022/01/12 08:21:46;;;;;;;9.55;8.50;;;4.20;99.90;;;;;;4971576;28;20495;-83
2022/01/12 08:24:12;;;;;;;8.93;8.13;;;4.10;99.90;;;;;;4967074;28;20201;-83
2022/01/12 08:26:39;;;;;;;8.37;7.50;;;4.20;99.90;;;;;;4974159;28;20262;-86
2022/01/12 08:29:05;;;;;;;10.00;8.38;;;4.20;99.90;;;;;;4982648;28;20488;-84
2022/01/12 08:31:31;;;;;;;10.70;9.40;;;;;;;;;;4975075;28;20177;-83
2022/01/12 08:33:57;;;;;;;8.15;7.35;;;4.40;99.90;;;;;;4986363;28;20194;-81
2022/01/12 08:36:23;;;;;;;8.80;7.90;;;;;;;;;;4981213;28;20210;-81
2022/01/12 08:38:49;;;;;;;10.15;8.35;;;4.40;99.90;;;;;;4994893;28;20232;-87
2022/01/12 08:41:15;;;;;;;12.80;9.30;;;;;;;;;;4973204;28;20228;-86
2022/01/12 08:43:41;;;;;;;12.07;8.15;;;4.50;99.90;;;;;;4973903;28;20247;-86
2022/01/12 08:46:09;;;;;;;17.50;8.20;;;;;;;;;;4978253;28;20216;-87
2022/01/12 08:48:35;;;;;;;16.05;9.95;;;;;;;;;;4977431;28;20227;-86
2022/01/12 08:51:02;;;;;;;19.02;10.35;;;4.20;99.90;;;;;;4976017;28;20177;-83
2022/01/12 08:53:28;;;;;;;18.73;10.95;;;;;;;;;;4982375;28;20225;-83
2022/01/12 08:55:54;;;;;;;18.92;9.93;;;;;;;;;;4965655;28;20231;-84
2022/01/12 08:58:20;;;;;;;23.27;12.00;;;4.20;99.90;;;;;;4986569;28;20182;-83
2022/01/12 09:00:46;;;;;;;22.80;14.07;;;4.20;99.90;;;;;;4979361;28;20705;-83
2022/01/12 09:03:12;;;;;;;25.87;12.37;;;4.10;99.90;;;;;;4988088;28;20197;-82
2022/01/12 09:05:38;;;;;;;21.80;13.27;;;;;;;;;;4997850;28;20576;-83
2022/01/12 09:08:04;;;;;;;20.50;12.93;;;4.30;99.90;;;;;;4986707;28;20506;-82
2022/01/12 09:10:34;;;;;;;17.63;12.85;;;4.00;99.90;;;;;;4968185;28;20192;-83
2022/01/12 09:13:00;;;;;;;17.52;11.45;;;;;;;;;;4997779;28;20196;-83
2022/01/12 09:15:26;;;;;;;24.35;13.25;;;4.30;99.90;;;;;;4993487;28;20221;-83
2022/01/12 09:17:54;;;;;;;21.80;14.20;;;4.70;99.90;;;;;;4990699;28;20193;-83
2022/01/12 09:20:20;;;;;;;22.73;11.77;;;4.50;99.90;;;;;;4969983;28;20738;-82
2022/01/12 09:22:46;;;;;;;16.42;11.68;;;4.30;99.90;;;;;;4984867;28;20189;-83
2022/01/12 09:25:12;;;;;;;21.73;13.35;;;4.30;99.90;;;;;;5000333;28;20184;-83
2022/01/12 09:27:39;;;;;;;17.52;11.95;;;4.40;99.90;;;;;;4964895;28;20209;-82
2022/01/12 09:30:08;;;;;;;20.65;12.73;;;4.30;99.90;;;;;;4981956;28;20200;-84
2022/01/12 09:32:35;;;;;;;26.95;14.02;;;;;;;;;;4963566;28;20271;-83
2022/01/12 09:35:01;;;;;;;25.08;14.32;;;;;;;;;;4977202;28;20209;-85
2022/01/12 09:37:27;;;;;;;30.67;14.90;;;4.10;99.90;;;;;;4970215;28;20232;-83
2022/01/12 09:39:56;;;;;;;22.45;13.23;;;4.20;99.90;;;;;;4964243;28;20758;-85
2022/01/12 09:42:22;;;;;;;28.10;13.55;;;4.40;99.90;;;;;;4976761;28;20195;-84
2022/01/12 09:44:52;;;;;;;16.97;10.50;;;4.60;99.90;;;;;;4976086;28;20194;-84
2022/01/12 09:47:18;;;;;;;16.30;9.77;;;4.80;99.90;;;;;;5006903;28;20436;-83
2022/01/12 09:49:46;;;;;;;13.93;10.93;;;4.70;99.90;;;;;;4964830;28;20190;-84
2022/01/12 09:52:15;;;;;;;21.52;11.73;;;4.70;99.90;;;;;;4969036;28;20190;-84
2022/01/12 09:54:41;;;;;;;23.42;13.27;;;;;;;;;;4990787;28;20620;-83
2022/01/12 09:57:08;;;;;;;25.83;14.30;;;;;;;;;;4992236;28;20220;-84
2022/01/12 09:59:35;;;;;;;21.02;12.10;;;5.10;99.90;;;;;;4980629;28;20259;-83
2022/01/12 10:02:02;;;;;;;23.23;14.57;;;;;;;;;;4972835;28;20181;-83
2022/01/12 10:04:30;;;;;;;19.58;12.57;;;4.70;99.90;;;;;;4977777;28;20189;-83
2022/01/12 10:07:04;;;;;;;24.25;13.93;;;4.70;99.90;;;;;;4976611;28;20195;-82
2022/01/12 10:09:45;;;;;;;28.70;15.73;;;4.90;99.90;;;;;;4986098;28;20205;-84
2022/01/12 10:12:15;;;;;;;21.90;14.60;;;4.90;99.90;;;;;;4991452;28;20200;-83
2022/01/12 10:14:43;;;;;;;24.58;13.38;;;4.70;99.90;;;;;;4971582;28;20205;-82
2022/01/12 10:17:10;;;;;;;31.75;15.07;;;5.20;99.90;;;;;;4974095;28;20196;-83
2022/01/12 10:19:36;;;;;;;39.85;21.15;;;4.90;99.90;;;;;;4990352;28;20206;-84
2022/01/12 10:22:05;;;;;;;22.77;14.23;;;5.00;99.90;;;;;;4968450;28;20527;-83
2022/01/12 10:24:32;;;;;;;25.33;13.00;;;;;;;;;;4305034;28;10000701;-83
2022/01/12 10:26:57;;;;;;;23.38;13.20;;;5.10;99.90;;;;;;4994312;28;20189;-84
2022/01/12 10:29:26;;;;;;;22.50;13.13;;;5.30;99.90;;;;;;4986097;28;20722;-83
2022/01/12 10:32:12;;;;;;;28.08;15.40;;;5.30;99.90;;;;;;4989112;28;20428;-84
2022/01/12 10:34:45;;;;;;;20.70;13.73;;;5.10;99.90;;;;;;4992188;28;20237;-82
2022/01/12 10:37:33;;;;;;;26.15;14.88;;;5.20;99.90;;;;;;4985482;28;20204;-83
2022/01/12 10:40:18;;;;;;;26.15;15.05;;;5.20;99.90;;;;;;4965773;28;20193;-82
2022/01/12 10:42:45;;;;;;;23.25;13.48;;;5.30;99.90;;;;;;4978676;28;20718;-82
2022/01/12 10:45:42;;;;;;;29.67;17.10;;;5.30;99.90;;;;;;4993999;28;20181;-86
2022/01/12 10:48:08;;;;;;;24.98;14.95;;;;;;;;;;4979947;28;20226;-84
2022/01/12 10:50:57;;;;;;;24.67;15.10;;;5.20;99.90;;;;;;4993270;28;20181;-85
2022/01/12 10:53:31;;;;;;;27.73;15.68;;;5.20;99.90;;;;;;4976359;28;20563;-84
2022/01/12 10:56:18;;;;;;;24.65;14.85;;;5.20;99.90;;;;;;4975735;28;20193;-84
2022/01/12 10:58:54;;;;;;;24.05;14.82;;;5.10;99.90;;;;;;4986921;28;20232;-85
2022/01/12 11:01:27;;;;;;;25.90;15.35;;;5.00;99.90;;;;;;4992020;28;20197;-86
2022/01/12 11:03:56;;;;;;;25.33;15.90;;;5.10;99.90;;;;;;4979917;28;20302;-84
2022/01/12 11:06:26;;;;;;;30.58;17.23;;;5.10;99.90;;;;;;4993079;28;20748;-84
2022/01/12 11:08:53;;;;;;;28.13;15.07;;;;;;;;;;4992236;28;20677;-85
2022/01/12 11:11:41;;;;;;;29.42;15.85;;;5.10;99.90;;;;;;4992803;28;20212;-87
2022/01/12 11:14:20;;;;;;;28.52;15.63;;;5.10;99.90;;;;;;4992968;28;20192;-85
2022/01/12 11:16:46;;;;;;;27.90;14.88;;;;;;;;;;4980012;28;20277;-85
2022/01/12 11:19:13;;;;;;;26.33;14.57;;;;;;;;;;4984577;28;20192;-84
2022/01/12 11:22:02;;;;;;;24.27;14.27;;;5.20;99.90;;;;;;4975070;28;20224;-84
2022/01/12 11:24:28;;;;;;;27.30;15.43;;;;;;;;;;4989560;28;20211;-84
2022/01/12 11:26:54;;;;;;;33.67;18.73;;;5.20;99.90;;;;;;4989890;28;20197;-82
2022/01/12 11:29:32;;;;;;;35.20;18.57;;;5.00;99.90;;;;;;4992443;28;20603;-83
2022/01/12 11:32:05;;;;;;;39.67;18.27;;;5.10;99.90;;;;;;4981905;28;20594;-83
2022/01/12 11:34:31;;;;;;;30.98;16.10;;;5.20;99.90;;;;;;4996714;28;20681;-82
2022/01/12 11:36:57;;;;;;;39.60;18.03;;;;;;;;;;4978430;28;20200;-84
2022/01/12 11:39:30;;;;;;;44.45;21.30;;;5.60;99.90;;;;;;4977240;28;20212;-84
2022/01/12 11:41:57;;;;;;;42.88;19.23;;;5.30;99.90;;;;;;4965422;28;20209;-84
2022/01/12 11:44:28;;;;;;;39.70;20.30;;;5.30;99.90;;;;;;4995261;28;20621;-84
2022/01/12 11:46:56;;;;;;;40.60;19.17;;;5.50;99.90;;;;;;4981815;28;20201;-84
2022/01/12 11:49:32;;;;;;;39.45;19.13;;;5.40;99.90;;;;;;4982085;28;20609;-82
2022/01/12 11:52:14;;;;;;;44.20;22.40;;;5.40;99.90;;;;;;4974104;28;20292;-82
2022/01/12 11:54:45;;;;;;;48.78;21.30;;;4.60;99.90;;;;;;4974296;28;20188;-82
2022/01/12 11:57:29;;;;;;;42.05;20.75;;;5.40;99.90;;;;;;4986256;28;20188;-82
2022/01/12 11:59:57;;;;;;;42.72;20.63;;;5.40;99.90;;;;;;4988100;28;20188;-83
2022/01/12 12:02:43;;;;;;;44.22;20.20;;;5.50;99.90;;;;;;4969684;28;20194;-84
2022/01/12 12:05:25;;;;;;;44.95;19.88;;;5.40;99.90;;;;;;4967253;28;20173;-82
2022/01/12 12:08:02;;;;;;;49.78;22.88;;;5.10;99.90;;;;;;4974499;28;20445;-81
2022/01/12 12:10:30;;;;;;;54.17;22.38;;;5.00;99.90;;;;;;4975299;28;20177;-86
2022/01/12 12:12:59;;;;;;;44.90;22.92;;;5.20;99.90;;;;;;4985313;28;20193;-86
2022/01/12 12:15:34;;;;;;;58.25;22.42;;;5.20;99.90;;;;;;4976178;28;20181;-87
2022/01/12 12:18:04;;;;;;;47.92;23.88;;;;;;;;;;4986535;28;20183;-86
2022/01/12 12:20:31;;;;;;;47.92;21.83;;;5.40;99.90;;;;;;4982290;28;20185;-86
2022/01/12 12:23:01;;;;;;;63.88;24.00;;;5.40;99.90;;;;;;4982888;28;20173;-86
2022/01/12 12:25:41;;;;;;;47.45;23.77;;;5.50;99.90;;;;;;4997764;28;20193;-84
2022/01/12 12:28:09;;;;;;;56.13;22.88;;;;;;;;;;5001043;28;20228;-87
2022/01/12 12:30:45;;;;;;;57.22;19.73;;;5.40;99.90;;;;;;4994851;28;20189;-87
2022/01/12 12:33:35;;;;;;;49.20;21.42;;;5.40;99.90;;;;;;4995422;28;20586;-87
2022/01/12 12:36:12;;;;;;;56.85;23.42;;;5.30;99.90;;;;;;5002499;28;20189;-88
2022/01/12 12:38:47;;;;;;;52.40;23.70;;;5.40;99.90;;;;;;4981798;28;20228;-91
2022/01/12 12:41:54;;;;;;;;;;;;;;;;;;;;;
2022/01/12 12:44:49;;;;;;;53.05;22.80;;;5.20;99.90;;;;;;5011688;28;20213;-91
2022/01/12 12:47:35;;;;;;;60.45;25.75;;;5.20;99.90;;;;;;4996017;28;20158;-91
2022/01/12 12:50:59;;;;;;;64.78;25.92;;;5.10;99.90;;;;;;5006932;28;20177;-90
2022/01/12 12:59:24;;;;;;;58.05;24.45;;;;;;;;;;3065488;23;20220;-87
2022/01/12 13:02:08;;;;;;;63.25;26.10;;;5.30;99.90;;;;;;5020983;28;20173;-86
2022/01/12 13:05:30;;;;;;;58.70;23.30;;;5.20;99.90;;;;;;5002509;28;20196;-89
2022/01/12 13:08:16;;;;;;;63.53;25.55;;;5.20;99.90;;;;;;4941164;28;20214;-88
2022/01/12 13:10:45;;;;;;;62.55;26.60;;;;;;;;;;5016738;28;20213;-85
2022/01/12 13:13:20;;;;;;;60.33;26.83;;;;;;;;;;5004779;28;20203;-87
2022/01/12 13:16:36;;;;;;;63.35;26.83;;;5.40;99.90;;;;;;5021482;28;20195;-88
2022/01/12 13:19:21;;;;;;;59.75;25.10;;;;;;;;;;5013371;28;20728;-88
2022/01/12 13:23:17;;;;;;;50.90;25.50;;;5.50;99.90;;;;;;5018988;28;20169;-89
2022/01/12 13:25:27;;;;;;;52.88;22.08;;;5.50;99.90;;;;;;5012722;28;20223;-86
2022/01/12 13:28:18;;;;;;;51.00;24.45;;;5.50;99.90;;;;;;4999305;28;20215;-86
2022/01/12 13:30:56;;;;;;;56.58;26.80;;;5.50;99.90;;;;;;5022456;28;20440;-83
2022/01/12 13:33:31;;;;;;;59.80;25.45;;;5.50;99.90;;;;;;5008732;28;20198;-84
2022/01/12 13:36:09;;;;;;;71.38;27.23;;;5.50;99.90;;;;;;5007835;28;20772;-85
2022/01/12 13:38:38;;;;;;;67.05;26.13;;;5.40;99.90;;;;;;5003233;28;20299;-83
2022/01/12 13:41:09;;;;;;;63.30;25.85;;;5.50;99.90;;;;;;5003654;28;20281;-82
2022/01/12 13:43:39;;;;;;;68.15;26.90;;;5.50;99.90;;;;;;5003087;28;20227;-85
2022/01/12 13:46:12;;;;;;;56.03;28.35;;;5.30;99.90;;;;;;5005252;28;20287;-83
2022/01/12 13:48:43;;;;;;;70.57;27.83;;;5.20;99.90;;;;;;4986103;28;20283;-85
2022/01/12 13:51:10;;;;;;;58.75;27.63;;;5.20;99.90;;;;;;4983403;28;20696;-83
2022/01/12 13:53:40;;;;;;;59.38;27.73;;;5.30;99.90;;;;;;4992459;28;20188;-83
2022/01/12 13:56:08;;;;;;;76.10;28.77;;;5.20;99.90;;;;;;5009428;28;20594;-83
2022/01/12 13:58:37;;;;;;;60.25;25.58;;;5.20;99.90;;;;;;5010176;28;20565;-83
2022/01/12 14:01:11;;;;;;;55.72;27.05;;;5.30;99.90;;;;;;5009412;28;20270;-83
2022/01/12 14:03:55;;;;;;;60.65;27.40;;;5.50;99.90;;;;;;5011633;28;20175;-83
2022/01/12 14:06:26;;;;;;;71.55;29.05;;;5.20;99.90;;;;;;5009176;28;20374;-84
2022/01/12 14:12:07;;;;;;;53.30;23.53;;;5.30;99.90;;;;;;4622899;26;9999945;-85
2022/01/12 14:15:12;;;;;;;45.28;20.77;;;5.10;99.90;;;;;;4951889;28;20460;-83
2022/01/12 14:17:45;;;;;;;25.90;15.30;;;5.30;99.90;;;;;;4967310;28;20217;-84
2022/01/12 14:20:22;;;;;;;29.95;14.52;;;5.20;99.90;;;;;;4950825;28;20186;-83
2022/01/12 14:23:10;;;;;;;27.25;13.98;;;5.20;99.90;;;;;;4972404;28;20670;-84
2022/01/12 14:25:40;;;;;;;29.73;16.38;;;5.10;99.90;;;;;;4966989;28;20196;-83
2022/01/12 14:28:18;;;;;;;23.08;13.85;;;5.20;99.90;;;;;;4970238;28;20281;-81
2022/01/12 14:30:45;;;;;;;33.78;17.60;;;5.20;99.90;;;;;;4951238;28;20190;-81
2022/01/12 14:33:12;;;;;;;28.25;15.45;;;5.20;99.90;;;;;;4968886;28;20901;-83
2022/01/12 14:35:38;;;;;;;31.35;15.32;;;;;;;;;;4967766;28;20190;-82
2022/01/12 14:38:15;;;;;;;29.15;15.95;;;4.90;99.90;;;;;;4968482;28;20285;-80
2022/01/12 14:40:42;;;;;;;29.23;14.75;;;5.30;99.90;;;;;;4948916;28;20467;-82
2022/01/12 14:43:08;;;;;;;30.38;16.70;;;5.00;99.90;;;;;;4951673;28;20244;-82
2022/01/12 14:45:39;;;;;;;29.45;14.13;;;6.60;99.90;;;;;;4967542;28;20204;-81
2022/01/12 14:48:07;;;;;;;34.35;16.60;;;5.10;99.90;;;;;;4978333;28;20366;-83
2022/01/12 14:50:33;;;;;;;33.17;17.05;;;4.90;99.90;;;;;;4967562;28;20683;-82
2022/01/12 14:53:01;;;;;;;36.45;18.42;;;5.50;99.90;;;;;;4968647;28;20197;-82